Time;durP1;ratioP1;P1;durP2;ratioP2;P2;SDS_P1;SDS_P2;PMS_P1;PMS_P2;Temp;Humidity;BMP_temperature;BMP_pressure;BME280_temperature;BME280_humidity;BME280_pressure;Samples;Min_cycle;Max_cycle;Signal;HPM_P1;HPM_P2
2023/04/30 00:01:12;;;;;;;6.00;5.57;;;;;;;;;;4162453;28;20245;-80
2023/04/30 00:03:32;;;;;;;6.60;6.28;;;;;;;;;;4182179;28;20371;-80
2023/04/30 00:05:53;;;;;;;5.97;5.53;;;;;;;;;;4165446;28;20095;-80
2023/04/30 00:08:13;;;;;;;5.35;4.78;;;;;;;;;;4158169;28;20061;-80
2023/04/30 00:10:33;;;;;;;5.35;5.15;;;;;;;;;;4175225;28;20430;-80
2023/04/30 00:12:54;;;;;;;4.57;4.47;;;;;;;;;;4180243;28;20052;-80
2023/04/30 00:15:14;;;;;;;5.70;5.43;;;;;;;;;;4178206;28;20052;-80
2023/04/30 00:17:34;;;;;;;5.75;5.55;;;;;;;;;;4177865;28;20370;-80
2023/04/30 00:19:55;;;;;;;5.97;5.50;;;;;;;;;;4149709;28;20053;-80
2023/04/30 00:22:16;;;;;;;6.00;5.38;;;;;;;;;;4175109;28;20048;-80
2023/04/30 00:24:36;;;;;;;5.60;5.20;;;;;;;;;;4171401;28;20041;-80
2023/04/30 00:26:56;;;;;;;6.07;5.57;;;;;;;;;;4160639;28;20253;-80
2023/04/30 00:29:17;;;;;;;5.93;5.63;;;;;;;;;;4167831;28;20383;-80
2023/04/30 00:31:37;;;;;;;5.70;5.28;;;;;;;;;;4161378;28;20123;-80
2023/04/30 00:33:57;;;;;;;4.80;4.60;;;;;;;;;;4156702;28;20055;-80
2023/04/30 00:36:18;;;;;;;5.78;5.30;;;;;;;;;;4167865;28;20049;-80
2023/04/30 00:38:38;;;;;;;6.00;4.57;;;;;;;;;;4159786;28;20260;-80
2023/04/30 00:40:59;;;;;;;5.20;4.93;;;;;;;;;;4166763;28;20112;-80
2023/04/30 00:43:20;;;;;;;6.60;6.30;;;;;;;;;;4178048;28;20052;-80
2023/04/30 00:45:40;;;;;;;5.40;5.13;;;;;;;;;;4170442;28;20324;-80
2023/04/30 00:48:01;;;;;;;5.43;5.13;;;;;;;;;;4175600;28;20049;-80
2023/04/30 00:50:22;;;;;;;5.18;5.05;;;;;;;;;;4167687;28;20056;-80
2023/04/30 00:52:43;;;;;;;4.57;4.38;;;;;;;;;;4163462;28;20383;-80
2023/04/30 00:55:03;;;;;;;5.13;5.03;;;;;;;;;;4160566;28;20049;-80
2023/04/30 00:57:24;;;;;;;8.23;5.47;;;;;;;;;;4164407;28;20208;-80
2023/04/30 00:59:45;;;;;;;6.20;5.90;;;;;;;;;;4178317;28;20298;-80
2023/04/30 01:02:05;;;;;;;4.10;3.83;;;;;;;;;;4154617;28;20391;-80
2023/04/30 01:04:26;;;;;;;5.07;4.88;;;;;;;;;;4172776;28;20116;-80
2023/04/30 01:06:46;;;;;;;5.63;5.22;;;;;;;;;;4180700;28;20072;-80
2023/04/30 01:09:07;;;;;;;5.47;5.18;;;;;;;;;;4173366;28;20084;-80
2023/04/30 01:11:36;;;;;;;5.85;5.35;;;;;;;;;;4175637;28;20084;-80
2023/04/30 01:14:22;;;;;;;6.65;6.25;;;;;;;;;;4180111;28;20076;-80
2023/04/30 01:16:46;;;;;;;5.60;5.22;;;;;;;;;;4156952;28;20053;-80
2023/04/30 01:19:26;;;;;;;4.68;4.38;;;;;;;;;;4173443;28;20053;-80
2023/04/30 01:21:46;;;;;;;6.35;5.80;;;;;;;;;;4176194;28;20102;-80
2023/04/30 01:24:09;;;;;;;5.55;5.28;;;;;;;;;;4173481;28;20385;-80
2023/04/30 01:26:45;;;;;;;6.03;5.72;;;;;;;;;;4151373;28;20053;-80
2023/04/30 01:29:06;;;;;;;5.68;5.38;;;;;;;;;;4163849;28;20080;-80
2023/04/30 01:31:28;;;;;;;5.72;5.47;;;;;;;;;;4173585;28;20236;-80
2023/04/30 01:33:48;;;;;;;5.80;5.57;;;;;;;;;;4155314;28;20061;-80
2023/04/30 01:36:27;;;;;;;5.82;5.53;;;;;;;;;;4152207;28;20120;-80
2023/04/30 01:38:47;;;;;;;4.82;4.63;;;;;;;;;;4157889;28;20116;-80
2023/04/30 01:41:27;;;;;;;6.93;6.63;;;;;;;;;;4158195;28;20109;-80
2023/04/30 01:43:56;;;;;;;5.38;4.78;;;;;;;;;;4153061;28;20091;-80
2023/04/30 01:46:29;;;;;;;5.07;4.78;;;;;;;;;;4153113;28;20056;-80
2023/04/30 01:48:49;;;;;;;5.22;5.03;;;;;;;;;;4176088;28;20232;-80
2023/04/30 01:51:12;;;;;;;5.78;5.55;;;;;;;;;;4155782;28;20071;-80
2023/04/30 01:53:39;;;;;;;5.57;5.18;;;;;;;;;;4154776;28;20088;-80
2023/04/30 01:56:05;;;;;;;5.38;5.05;;;;;;;;;;4170721;28;20117;-80
2023/04/30 01:58:26;;;;;;;5.13;4.93;;;;;;;;;;4172674;28;20394;-80
2023/04/30 02:00:46;;;;;;;5.55;4.97;;;;;;;;;;4169728;28;20060;-80
2023/04/30 02:03:07;;;;;;;5.68;5.30;;;;;;;;;;4175240;28;20052;-80
2023/04/30 02:05:27;;;;;;;5.47;5.28;;;;;;;;;;4160844;28;20060;-80
2023/04/30 02:07:49;;;;;;;4.57;4.38;;;;;;;;;;4179261;28;20394;-80
2023/04/30 02:10:13;;;;;;;4.47;4.38;;;;;;;;;;4178745;28;20071;-80
2023/04/30 02:12:33;;;;;;;5.25;5.00;;;;;;;;;;4177375;28;20272;-80
2023/04/30 02:14:53;;;;;;;4.07;3.97;;;;;;;;;;4161020;28;20304;-80
2023/04/30 02:17:13;;;;;;;4.15;3.88;;;;;;;;;;4177861;28;20064;-80
2023/04/30 02:19:33;;;;;;;4.57;4.35;;;;;;;;;;4177248;28;20036;-80
2023/04/30 02:21:53;;;;;;;5.18;5.00;;;;;;;;;;4163125;28;20088;-80
2023/04/30 02:24:13;;;;;;;4.78;4.68;;;;;;;;;;4155308;28;20062;-79
2023/04/30 02:26:33;;;;;;;4.40;4.20;;;;;;;;;;4154452;28;20371;-80
2023/04/30 02:28:53;;;;;;;4.75;4.55;;;;;;;;;;4175336;28;20090;-80
2023/04/30 02:31:14;;;;;;;4.85;4.65;;;;;;;;;;4175428;28;20275;-80
2023/04/30 02:33:34;;;;;;;6.57;6.22;;;;;;;;;;4175402;28;20099;-80
2023/04/30 02:35:55;;;;;;;6.20;5.80;;;;;;;;;;4172231;28;20056;-80
2023/04/30 02:38:15;;;;;;;6.18;5.57;;;;;;;;;;4174720;28;20056;-80
2023/04/30 02:40:35;;;;;;;4.63;4.53;;;;;;;;;;4159563;28;20048;-80
2023/04/30 02:42:56;;;;;;;5.28;4.75;;;;;;;;;;4179055;28;20253;-80
2023/04/30 02:45:16;;;;;;;5.85;5.55;;;;;;;;;;4160080;28;20394;-80
2023/04/30 02:47:36;;;;;;;7.10;6.60;;;;;;;;;;4158195;28;20110;-80
2023/04/30 02:49:57;;;;;;;6.43;6.00;;;;;;;;;;4157753;28;20085;-80
2023/04/30 02:52:17;;;;;;;6.25;5.95;;;;;;;;;;4165125;28;20083;-80
2023/04/30 02:54:37;;;;;;;5.82;5.70;;;;;;;;;;4162925;28;20256;-80
2023/04/30 02:56:57;;;;;;;6.05;5.47;;;;;;;;;;4159437;28;20092;-80
2023/04/30 02:59:18;;;;;;;5.70;5.35;;;;;;;;;;4157458;28;20113;-80
2023/04/30 03:01:38;;;;;;;6.22;5.85;;;;;;;;;;4171580;28;20051;-80
2023/04/30 03:03:58;;;;;;;5.60;5.30;;;;;;;;;;4154397;28;20060;-80
2023/04/30 03:06:18;;;;;;;6.07;5.80;;;;;;;;;;4168648;28;20052;-80
2023/04/30 03:08:39;;;;;;;6.07;5.63;;;;;;;;;;4165311;28;20072;-80
2023/04/30 03:10:59;;;;;;;5.40;5.20;;;;;;;;;;4175162;28;20127;-80
2023/04/30 03:13:20;;;;;;;5.82;5.40;;;;;;;;;;4170320;28;20127;-80
2023/04/30 03:15:40;;;;;;;5.90;5.40;;;;;;;;;;4171443;28;20299;-80
2023/04/30 03:18:01;;;;;;;5.97;5.88;;;;;;;;;;4166596;28;20087;-80
2023/04/30 03:20:21;;;;;;;5.88;5.45;;;;;;;;;;4175059;28;20275;-80
2023/04/30 03:22:41;;;;;;;5.70;5.32;;;;;;;;;;4158139;28;20088;-80
2023/04/30 03:25:02;;;;;;;7.40;6.78;;;;;;;;;;4171476;28;20117;-80
2023/04/30 03:27:22;;;;;;;5.55;5.35;;;;;;;;;;4174932;28;20084;-80
2023/04/30 03:29:42;;;;;;;5.47;5.25;;;;;;;;;;4181845;28;20064;-80
2023/04/30 03:32:02;;;;;;;5.25;5.00;;;;;;;;;;4177104;28;20137;-80
2023/04/30 03:34:23;;;;;;;5.60;5.22;;;;;;;;;;4177252;28;20051;-80
2023/04/30 03:36:43;;;;;;;7.68;6.05;;;;;;;;;;4178366;28;20041;-80
2023/04/30 03:39:04;;;;;;;4.90;4.63;;;;;;;;;;4164244;28;20052;-80
2023/04/30 03:41:24;;;;;;;4.75;4.55;;;;;;;;;;4178972;28;20129;-80
2023/04/30 03:43:45;;;;;;;4.80;4.60;;;;;;;;;;4177956;28;20045;-80
2023/04/30 03:46:05;;;;;;;5.05;4.85;;;;;;;;;;4180675;28;20048;-80
2023/04/30 03:48:26;;;;;;;4.93;4.53;;;;;;;;;;4174721;28;20052;-80
2023/04/30 03:50:46;;;;;;;4.75;4.63;;;;;;;;;;4158194;28;20268;-80
2023/04/30 03:53:07;;;;;;;5.07;4.95;;;;;;;;;;4174416;28;20051;-80
2023/04/30 03:55:27;;;;;;;5.55;5.35;;;;;;;;;;4175400;28;20048;-80
2023/04/30 03:57:47;;;;;;;5.82;5.53;;;;;;;;;;4174309;28;20048;-80
2023/04/30 04:00:09;;;;;;;5.63;5.32;;;;;;;;;;4160381;28;20357;-80
2023/04/30 04:02:31;;;;;;;5.13;4.72;;;;;;;;;;4163059;28;20048;-80
2023/04/30 04:04:51;;;;;;;6.53;6.00;;;;;;;;;;4174531;28;20056;-80
2023/04/30 04:07:11;;;;;;;5.80;5.40;;;;;;;;;;4167132;28;20049;-80
2023/04/30 04:09:32;;;;;;;5.47;5.07;;;;;;;;;;4177852;28;20080;-80
2023/04/30 04:11:52;;;;;;;4.07;3.88;;;;;;;;;;4160262;28;20141;-80
2023/04/30 04:14:12;;;;;;;6.47;6.18;;;;;;;;;;4176428;28;20056;-80
2023/04/30 04:16:33;;;;;;;4.60;4.50;;;;;;;;;;4186030;28;20056;-80
2023/04/30 04:18:53;;;;;;;6.55;5.43;;;;;;;;;;4176531;28;20276;-80
2023/04/30 04:21:13;;;;;;;4.70;4.47;;;;;;;;;;4174510;28;20052;-80
2023/04/30 04:23:33;;;;;;;4.88;4.68;;;;;;;;;;4176911;28;20051;-80
2023/04/30 04:25:54;;;;;;;6.57;6.28;;;;;;;;;;4161776;28;20228;-80
2023/04/30 04:28:14;;;;;;;5.22;5.13;;;;;;;;;;4156135;28;20049;-80
2023/04/30 04:30:35;;;;;;;5.90;5.50;;;;;;;;;;4167075;28;20048;-80
2023/04/30 04:32:56;;;;;;;5.10;5.00;;;;;;;;;;4164259;28;20108;-80
2023/04/30 04:35:18;;;;;;;4.60;4.35;;;;;;;;;;4176031;28;20109;-80
2023/04/30 04:37:38;;;;;;;5.78;5.38;;;;;;;;;;4151582;28;20120;-80
2023/04/30 04:39:58;;;;;;;5.70;5.60;;;;;;;;;;4169119;28;20053;-80
2023/04/30 04:42:19;;;;;;;5.18;5.03;;;;;;;;;;4159854;28;20099;-80
2023/04/30 04:44:40;;;;;;;4.57;4.43;;;;;;;;;;4158547;28;20073;-80
2023/04/30 04:47:03;;;;;;;5.50;5.10;;;;;;;;;;4169889;28;20045;-80
2023/04/30 04:49:23;;;;;;;5.93;5.78;;;;;;;;;;4156286;28;20052;-80
2023/04/30 04:51:43;;;;;;;6.10;5.88;;;;;;;;;;4175042;28;20084;-80
2023/04/30 04:54:03;;;;;;;6.07;5.78;;;;;;;;;;4173465;28;20048;-80
2023/04/30 04:56:24;;;;;;;6.65;6.25;;;;;;;;;;4160616;28;20056;-80
2023/04/30 04:58:44;;;;;;;5.38;5.07;;;;;;;;;;4177845;28;20044;-80
2023/04/30 05:01:04;;;;;;;5.97;5.57;;;;;;;;;;4173113;28;20053;-80
2023/04/30 05:03:29;;;;;;;5.22;5.03;;;;;;;;;;4175326;28;20047;-80
2023/04/30 05:05:50;;;;;;;6.72;6.20;;;;;;;;;;4176429;28;20051;-80
2023/04/30 05:08:10;;;;;;;4.85;4.65;;;;;;;;;;4164719;28;20383;-80
2023/04/30 05:10:31;;;;;;;5.03;4.82;;;;;;;;;;4164179;28;20068;-80
2023/04/30 05:12:51;;;;;;;5.57;5.22;;;;;;;;;;4160237;28;20066;-80
2023/04/30 05:15:11;;;;;;;5.25;4.95;;;;;;;;;;4177247;28;20048;-80
2023/04/30 05:17:32;;;;;;;6.03;5.57;;;;;;;;;;4170670;28;20299;-80
2023/04/30 05:19:52;;;;;;;5.78;5.57;;;;;;;;;;4174352;28;20087;-80
2023/04/30 05:22:13;;;;;;;6.00;5.80;;;;;;;;;;4173229;28;20048;-80
2023/04/30 05:24:33;;;;;;;5.68;5.32;;;;;;;;;;4165901;28;20106;-80
2023/04/30 05:26:54;;;;;;;5.55;5.25;;;;;;;;;;4158854;28;20420;-80
2023/04/30 05:29:15;;;;;;;4.57;4.47;;;;;;;;;;4168401;28;20048;-80
2023/04/30 05:31:35;;;;;;;4.65;4.55;;;;;;;;;;4158109;28;20068;-80
2023/04/30 05:33:56;;;;;;;4.95;4.70;;;;;;;;;;4160076;28;20448;-80
2023/04/30 05:36:16;;;;;;;5.40;5.15;;;;;;;;;;4155417;28;20120;-80
2023/04/30 05:38:36;;;;;;;4.90;4.75;;;;;;;;;;4169777;28;20092;-80
2023/04/30 05:40:57;;;;;;;5.43;5.25;;;;;;;;;;4158820;28;20048;-80
2023/04/30 05:43:17;;;;;;;5.88;5.35;;;;;;;;;;4178353;28;20048;-80
2023/04/30 05:45:38;;;;;;;4.55;4.25;;;;;;;;;;4170335;28;20049;-80
2023/04/30 05:47:58;;;;;;;5.53;5.22;;;;;;;;;;4169522;28;20060;-80
2023/04/30 05:50:19;;;;;;;4.38;3.97;;;;;;;;;;4173731;28;20287;-80
2023/04/30 05:52:39;;;;;;;5.57;5.28;;;;;;;;;;4157492;28;20245;-80
2023/04/30 05:55:00;;;;;;;4.60;4.35;;;;;;;;;;4170248;28;20045;-80
2023/04/30 05:57:20;;;;;;;5.40;5.30;;;;;;;;;;4170522;28;20091;-80
2023/04/30 05:59:41;;;;;;;4.78;4.68;;;;;;;;;;4160123;28;20095;-80
2023/04/30 06:02:01;;;;;;;5.68;4.70;;;;;;;;;;4159082;28;20107;-80
2023/04/30 06:04:21;;;;;;;4.70;4.60;;;;;;;;;;4158927;28;20085;-80
2023/04/30 06:06:41;;;;;;;4.55;4.40;;;;;;;;;;4173734;28;20091;-79
2023/04/30 06:09:02;;;;;;;3.72;3.63;;;;;;;;;;4173814;28;20367;-81
2023/04/30 06:11:24;;;;;;;4.97;4.55;;;;;;;;;;4174638;28;20057;-86
2023/04/30 06:13:47;;;;;;;4.53;4.32;;;;;;;;;;4158122;28;20052;-77
2023/04/30 06:16:07;;;;;;;4.45;4.30;;;;;;;;;;4152198;28;20069;-79
2023/04/30 06:18:28;;;;;;;4.10;3.75;;;;;;;;;;4161122;28;20453;-80
2023/04/30 06:20:48;;;;;;;4.38;4.18;;;;;;;;;;4161909;28;20084;-80
2023/04/30 06:23:08;;;;;;;3.97;3.88;;;;;;;;;;4165799;28;20052;-80
2023/04/30 06:25:28;;;;;;;4.20;3.90;;;;;;;;;;4175977;28;20113;-80
2023/04/30 06:27:50;;;;;;;3.95;3.85;;;;;;;;;;4170314;28;20043;-80
2023/04/30 06:30:11;;;;;;;4.43;4.13;;;;;;;;;;4176384;28;20071;-80
2023/04/30 06:32:31;;;;;;;4.13;4.03;;;;;;;;;;4179928;28;20044;-80
2023/04/30 06:34:51;;;;;;;3.78;2.95;;;;;;;;;;4154857;28;20053;-80
2023/04/30 06:37:12;;;;;;;3.28;3.08;;;;;;;;;;4162054;28;20288;-80
2023/04/30 06:39:32;;;;;;;2.78;2.70;;;;;;;;;;4175583;28;20056;-80
2023/04/30 06:41:52;;;;;;;3.10;3.00;;;;;;;;;;4176307;28;20391;-80
2023/04/30 06:44:12;;;;;;;2.38;2.38;;;;;;;;;;4171410;28;20056;-80
2023/04/30 06:46:33;;;;;;;3.00;2.63;;;;;;;;;;4179164;28;20056;-80
2023/04/30 06:48:53;;;;;;;3.28;2.75;;;;;;;;;;4173851;28;20273;-80
2023/04/30 06:51:14;;;;;;;2.63;2.30;;;;;;;;;;4169947;28;20056;-80
2023/04/30 06:53:34;;;;;;;2.03;1.92;;;;;;;;;;4176771;28;20056;-80
2023/04/30 06:55:54;;;;;;;2.13;1.90;;;;;;;;;;4180731;28;20332;-80
2023/04/30 06:58:14;;;;;;;1.30;1.30;;;;;;;;;;4160064;28;20113;-79
2023/04/30 07:00:35;;;;;;;2.28;1.30;;;;;;;;;;4160050;28;20072;-77
2023/04/30 07:02:56;;;;;;;1.25;1.15;;;;;;;;;;4173231;28;20267;-77
2023/04/30 07:05:16;;;;;;;1.20;1.20;;;;;;;;;;4171055;28;20240;-77
2023/04/30 07:07:36;;;;;;;1.20;1.20;;;;;;;;;;4169278;28;20056;-77
2023/04/30 07:09:57;;;;;;;1.73;1.63;;;;;;;;;;4177990;28;20082;-77
2023/04/30 07:12:18;;;;;;;1.40;1.30;;;;;;;;;;4175671;28;20055;-77
2023/04/30 07:14:38;;;;;;;1.58;1.30;;;;;;;;;;4157923;28;20122;-77
2023/04/30 07:16:58;;;;;;;1.20;1.20;;;;;;;;;;4170802;28;20367;-77
2023/04/30 07:19:18;;;;;;;1.40;1.30;;;;;;;;;;4173774;28;20099;-77
2023/04/30 07:21:38;;;;;;;1.20;1.20;;;;;;;;;;4171676;28;20091;-77
2023/04/30 07:23:58;;;;;;;1.10;1.10;;;;;;;;;;4158834;28;20058;-77
2023/04/30 07:26:18;;;;;;;1.17;1.17;;;;;;;;;;4168089;28;20168;-77
2023/04/30 07:28:38;;;;;;;1.10;1.10;;;;;;;;;;4169104;28;20109;-77
2023/04/30 07:30:59;;;;;;;1.10;1.10;;;;;;;;;;4175479;28;20073;-77
2023/04/30 07:33:19;;;;;;;1.20;1.20;;;;;;;;;;4173822;28;20052;-77
2023/04/30 07:35:40;;;;;;;1.10;1.10;;;;;;;;;;4173561;28;20116;-77
2023/04/30 07:38:00;;;;;;;1.20;1.10;;;;;;;;;;4171284;28;20051;-77
2023/04/30 07:40:20;;;;;;;1.42;1.20;;;;;;;;;;4175886;28;20061;-77
2023/04/30 07:42:55;;;;;;;1.25;1.25;;;;;;;;;;4176768;28;20398;-77
2023/04/30 07:45:15;;;;;;;1.75;1.65;;;;;;;;;;4162718;28;20053;-77
2023/04/30 07:47:36;;;;;;;1.00;1.00;;;;;;;;;;4177403;28;20084;-77
2023/04/30 07:49:56;;;;;;;0.90;0.90;;;;;;;;;;4177930;28;20064;-77
2023/04/30 07:52:17;;;;;;;1.00;1.00;;;;;;;;;;4155741;28;20084;-77
2023/04/30 07:54:38;;;;;;;1.00;1.00;;;;;;;;;;4160297;28;20049;-77
2023/04/30 07:56:59;;;;;;;2.78;1.08;;;;;;;;;;4179704;28;20044;-77
2023/04/30 07:59:23;;;;;;;1.17;1.17;;;;;;;;;;4173778;28;20113;-77
2023/04/30 08:01:43;;;;;;;1.40;1.33;;;;;;;;;;4161634;28;20414;-77
2023/04/30 08:04:03;;;;;;;1.00;1.00;;;;;;;;;;4175961;28;20232;-77
2023/04/30 08:06:28;;;;;;;1.60;1.50;;;;;;;;;;4178892;28;20075;-77
2023/04/30 08:08:48;;;;;;;1.52;1.20;;;;;;;;;;4161008;28;20283;-79
2023/04/30 08:11:11;;;;;;;1.00;1.00;;;;;;;;;;4180328;28;20095;-87
2023/04/30 08:13:31;;;;;;;1.58;1.40;;;;;;;;;;4176619;28;20048;-87
2023/04/30 08:15:51;;;;;;;1.20;1.10;;;;;;;;;;4166333;28;20257;-86
2023/04/30 08:18:11;;;;;;;1.25;1.00;;;;;;;;;;4160577;28;20428;-87
2023/04/30 08:20:32;;;;;;;1.05;1.00;;;;;;;;;;4174719;28;20109;-87
2023/04/30 08:22:52;;;;;;;1.77;1.35;;;;;;;;;;4156992;28;20368;-87
2023/04/30 08:25:13;;;;;;;0.90;0.90;;;;;;;;;;4161961;28;20176;-87
2023/04/30 08:27:33;;;;;;;1.00;1.00;;;;;;;;;;4175484;28;20087;-87
2023/04/30 08:29:53;;;;;;;1.00;1.00;;;;;;;;;;4176206;28;20149;-87
2023/04/30 08:32:14;;;;;;;2.10;0.90;;;;;;;;;;4155489;28;20079;-87
2023/04/30 08:34:35;;;;;;;0.90;0.90;;;;;;;;;;4163827;28;20044;-87
2023/04/30 08:36:55;;;;;;;1.00;1.00;;;;;;;;;;4162717;28;20101;-87
2023/04/30 08:39:15;;;;;;;0.90;0.90;;;;;;;;;;4174661;28;20087;-87
2023/04/30 08:41:36;;;;;;;0.95;0.95;;;;;;;;;;4165720;28;20282;-87
2023/04/30 08:44:00;;;;;;;1.00;1.00;;;;;;;;;;4171925;28;20052;-87
2023/04/30 08:46:23;;;;;;;1.00;1.00;;;;;;;;;;4165032;28;20056;-87
2023/04/30 08:48:43;;;;;;;1.00;1.00;;;;;;;;;;4174328;28;20585;-87
2023/04/30 08:51:04;;;;;;;0.90;0.90;;;;;;;;;;4170705;28;20095;-87
2023/04/30 08:53:24;;;;;;;0.90;0.90;;;;;;;;;;4175830;28;20077;-87
2023/04/30 08:55:45;;;;;;;3.30;0.90;;;;;;;;;;4176669;28;20071;-87
2023/04/30 08:58:06;;;;;;;1.73;1.63;;;;;;;;;;4174697;28;20071;-87
2023/04/30 09:00:26;;;;;;;1.10;1.00;;;;;;;;;;4172025;28;20041;-87
2023/04/30 09:02:48;;;;;;;0.90;0.90;;;;;;;;;;4173721;28;20059;-87
2023/04/30 09:05:11;;;;;;;1.40;1.00;;;;;;;;;;4159023;28;20084;-87
2023/04/30 09:07:33;;;;;;;1.38;1.08;;;;;;;;;;4174878;28;20094;-87
2023/04/30 09:09:53;;;;;;;1.05;1.05;;;;;;;;;;4175513;28;20275;-87
2023/04/30 09:12:16;;;;;;;1.00;1.00;;;;;;;;;;4178713;28;20056;-86
2023/04/30 09:14:40;;;;;;;0.90;0.90;;;;;;;;;;4176472;28;20056;-87
2023/04/30 09:17:00;;;;;;;1.10;1.00;;;;;;;;;;4180320;28;20090;-87
2023/04/30 09:19:27;;;;;;;1.80;0.90;;;;;;;;;;4177121;28;20056;-87
2023/04/30 09:21:47;;;;;;;0.90;0.90;;;;;;;;;;4174124;28;20252;-87
2023/04/30 09:24:07;;;;;;;1.10;1.10;;;;;;;;;;4178032;28;20438;-87
2023/04/30 09:26:36;;;;;;;1.70;0.90;;;;;;;;;;4178041;28;20295;-87
2023/04/30 09:28:58;;;;;;;1.10;1.10;;;;;;;;;;4164094;28;20065;-87
2023/04/30 09:31:21;;;;;;;0.85;0.85;;;;;;;;;;4171297;28;20043;-86
2023/04/30 09:33:47;;;;;;;2.38;0.80;;;;;;;;;;4175649;28;20094;-87
2023/04/30 09:36:11;;;;;;;1.85;0.90;;;;;;;;;;4180167;28;20080;-87
2023/04/30 09:38:32;;;;;;;1.10;0.93;;;;;;;;;;4173511;28;20047;-87
2023/04/30 09:40:52;;;;;;;1.15;0.82;;;;;;;;;;4156377;28;20056;-86
2023/04/30 09:43:12;;;;;;;0.90;0.90;;;;;;;;;;4177776;28;20260;-87
2023/04/30 09:45:59;;;;;;;0.80;0.80;;;;;;;;;;4179458;28;20048;-86
2023/04/30 09:48:23;;;;;;;0.90;0.90;;;;;;;;;;4112727;28;20058;-87
2023/04/30 09:50:46;;;;;;;0.90;0.90;;;;;;;;;;4114499;28;20062;-87
2023/04/30 09:53:09;;;;;;;1.58;1.33;;;;;;;;;;4114181;28;20167;-88
2023/04/30 09:55:30;;;;;;;1.52;0.90;;;;;;;;;;4097903;28;20058;-86
2023/04/30 09:57:50;;;;;;;0.98;0.95;;;;;;;;;;4111671;28;20324;-87
2023/04/30 10:00:11;;;;;;;0.80;0.80;;;;;;;;;;4113418;28;20089;-86
2023/04/30 10:02:31;;;;;;;0.90;0.80;;;;;;;;;;4110370;28;20046;-86
2023/04/30 10:04:57;;;;;;;0.80;0.80;;;;;;;;;;4111591;28;20067;-88
2023/04/30 10:07:20;;;;;;;0.82;0.70;;;;;;;;;;4097371;28;20115;-79
2023/04/30 10:09:51;;;;;;;0.80;0.80;;;;;;;;;;4111016;28;20046;-79
2023/04/30 10:12:15;;;;;;;0.90;0.88;;;;;;;;;;4107713;28;20045;-80
2023/04/30 10:14:36;;;;;;;0.82;0.80;;;;;;;;;;4095744;28;20053;-79
2023/04/30 10:17:16;;;;;;;0.90;0.90;;;;;;;;;;4096154;29;20171;-79
2023/04/30 10:19:42;;;;;;;1.00;1.00;;;;;;;;;;4092040;28;20128;-79
2023/04/30 10:22:02;;;;;;;1.15;0.90;;;;;;;;;;4107227;28;20046;-80
2023/04/30 10:24:22;;;;;;;0.90;0.90;;;;;;;;;;4103353;28;20112;-79
2023/04/30 10:26:43;;;;;;;0.80;0.80;;;;;;;;;;4148441;28;20114;-79
2023/04/30 10:29:03;;;;;;;0.90;0.90;;;;;;;;;;4160152;28;20253;-79
2023/04/30 10:31:23;;;;;;;1.20;0.90;;;;;;;;;;4152001;28;20057;-79
2023/04/30 10:34:03;;;;;;;4.53;3.78;;;;;;;;;;4155172;28;20052;-79
2023/04/30 10:36:40;;;;;;;2.67;2.20;;;;;;;;;;4166617;28;20064;-79
2023/04/30 10:39:01;;;;;;;1.10;1.00;;;;;;;;;;4169784;28;20092;-79
2023/04/30 10:41:21;;;;;;;0.90;0.90;;;;;;;;;;4162910;28;20237;-79
2023/04/30 10:43:41;;;;;;;1.35;1.05;;;;;;;;;;4181958;28;20366;-79
2023/04/30 10:46:01;;;;;;;0.90;0.90;;;;;;;;;;4171252;28;20049;-79
2023/04/30 10:48:26;;;;;;;0.90;0.90;;;;;;;;;;4160019;28;20053;-79
2023/04/30 10:50:46;;;;;;;0.90;0.90;;;;;;;;;;4162204;28;20088;-79
2023/04/30 10:53:06;;;;;;;1.15;1.15;;;;;;;;;;4160104;28;20080;-79
2023/04/30 10:55:29;;;;;;;0.85;0.85;;;;;;;;;;4160572;28;20092;-79
2023/04/30 10:57:51;;;;;;;;;;;;;;;;;;4159530;28;20087;-79
2023/04/30 11:00:13;;;;;;;0.80;0.80;;;;;;;;;;4163168;28;20272;-79
2023/04/30 11:02:45;;;;;;;1.00;1.00;;;;;;;;;;4174932;28;20052;-79
2023/04/30 11:05:06;;;;;;;0.80;0.80;;;;;;;;;;4160787;28;20395;-79
2023/04/30 11:07:27;;;;;;;1.42;0.90;;;;;;;;;;4159930;28;20048;-79
2023/04/30 11:09:48;;;;;;;0.90;0.90;;;;;;;;;;4166357;28;20057;-79
2023/04/30 11:12:11;;;;;;;1.73;0.90;;;;;;;;;;4168998;28;20133;-79
2023/04/30 11:14:33;;;;;;;0.80;0.80;;;;;;;;;;4176025;28;20048;-79
2023/04/30 11:16:53;;;;;;;0.80;0.80;;;;;;;;;;4161563;28;20095;-79
2023/04/30 11:19:13;;;;;;;0.80;0.80;;;;;;;;;;4165668;28;20056;-79
2023/04/30 11:21:34;;;;;;;0.80;0.80;;;;;;;;;;4167638;28;20048;-79
2023/04/30 11:24:02;;;;;;;0.82;0.82;;;;;;;;;;4174629;28;20048;-79
2023/04/30 11:26:23;;;;;;;0.80;0.80;;;;;;;;;;4176938;28;20232;-79
2023/04/30 11:28:51;;;;;;;0.80;0.80;;;;;;;;;;4171252;28;20083;-79
2023/04/30 11:31:11;;;;;;;4.03;0.80;;;;;;;;;;4156789;28;20048;-79
2023/04/30 11:33:35;;;;;;;0.73;0.73;;;;;;;;;;4178865;28;20143;-79
2023/04/30 11:35:55;;;;;;;0.70;0.70;;;;;;;;;;4179817;28;20241;-79
2023/04/30 11:38:16;;;;;;;0.80;0.80;;;;;;;;;;4163274;28;20049;-79
2023/04/30 11:40:37;;;;;;;2.42;0.80;;;;;;;;;;4175512;28;20084;-79
2023/04/30 11:42:57;;;;;;;0.80;0.80;;;;;;;;;;4163461;28;20040;-79
2023/04/30 11:45:19;;;;;;;1.95;0.80;;;;;;;;;;4181537;28;20053;-79
2023/04/30 11:47:41;;;;;;;0.80;0.80;;;;;;;;;;4175605;28;20134;-79
2023/04/30 11:50:01;;;;;;;0.80;0.80;;;;;;;;;;4163598;28;20052;-79
2023/04/30 11:52:25;;;;;;;0.90;0.90;;;;;;;;;;4182438;28;20086;-79
2023/04/30 11:54:46;;;;;;;0.80;0.80;;;;;;;;;;4154869;28;20056;-79
2023/04/30 11:57:06;;;;;;;0.85;0.80;;;;;;;;;;4173374;28;20044;-79
2023/04/30 11:59:26;;;;;;;0.80;0.80;;;;;;;;;;4166854;28;20667;-79
2023/04/30 12:01:46;;;;;;;0.80;0.80;;;;;;;;;;4175257;28;20061;-79
2023/04/30 12:04:07;;;;;;;0.90;0.90;;;;;;;;;;4162283;28;20409;-79
2023/04/30 12:06:28;;;;;;;1.80;1.70;;;;;;;;;;4147812;28;20073;-79
2023/04/30 12:08:50;;;;;;;0.95;0.93;;;;;;;;;;4147500;28;20054;-79
2023/04/30 12:11:20;;;;;;;0.90;0.90;;;;;;;;;;4178478;28;20362;-85
2023/04/30 12:13:49;;;;;;;0.90;0.90;;;;;;;;;;4179265;28;20060;-85
2023/04/30 12:16:09;;;;;;;0.90;0.90;;;;;;;;;;4165635;28;20117;-85
2023/04/30 12:18:32;;;;;;;0.90;0.90;;;;;;;;;;4175143;28;20048;-85
2023/04/30 12:20:53;;;;;;;1.35;0.80;;;;;;;;;;4171959;28;20237;-85
2023/04/30 12:23:13;;;;;;;0.80;0.80;;;;;;;;;;4160996;28;20399;-85
2023/04/30 12:25:40;;;;;;;0.80;0.80;;;;;;;;;;4172317;28;20057;-85
2023/04/30 12:28:00;;;;;;;0.80;0.80;;;;;;;;;;4175080;28;20230;-85
2023/04/30 12:30:23;;;;;;;0.90;0.90;;;;;;;;;;4172403;28;20051;-85
2023/04/30 12:32:44;;;;;;;0.77;0.77;;;;;;;;;;4177273;28;20060;-85
2023/04/30 12:35:05;;;;;;;0.80;0.80;;;;;;;;;;4173393;28;20044;-85
2023/04/30 12:37:26;;;;;;;0.90;0.90;;;;;;;;;;4180200;28;20056;-85
2023/04/30 12:39:47;;;;;;;1.20;1.20;;;;;;;;;;4177174;28;20427;-85
2023/04/30 12:42:07;;;;;;;2.05;1.10;;;;;;;;;;4174575;28;20086;-85
2023/04/30 12:44:28;;;;;;;0.90;0.90;;;;;;;;;;4166304;28;20044;-85
2023/04/30 12:46:49;;;;;;;0.80;0.80;;;;;;;;;;4174077;28;20045;-85
2023/04/30 12:49:10;;;;;;;0.90;0.90;;;;;;;;;;4174154;28;20374;-85
2023/04/30 12:51:33;;;;;;;1.00;0.90;;;;;;;;;;4161765;28;20084;-85
2023/04/30 12:53:53;;;;;;;0.90;0.90;;;;;;;;;;4168865;28;20252;-85
2023/04/30 12:56:15;;;;;;;1.02;0.80;;;;;;;;;;4175757;28;20071;-85
2023/04/30 12:58:35;;;;;;;1.08;1.08;;;;;;;;;;4161268;28;20114;-85
2023/04/30 13:00:58;;;;;;;0.80;0.80;;;;;;;;;;4163185;28;20059;-85
2023/04/30 13:03:23;;;;;;;0.90;0.90;;;;;;;;;;4163113;28;20375;-85
2023/04/30 13:05:48;;;;;;;0.90;0.90;;;;;;;;;;4158017;28;20095;-85
2023/04/30 13:08:08;;;;;;;0.90;0.90;;;;;;;;;;4179482;28;20091;-85
2023/04/30 13:10:29;;;;;;;0.90;0.90;;;;;;;;;;4164138;28;20048;-85
2023/04/30 13:12:52;;;;;;;3.08;0.90;;;;;;;;;;4160928;28;20068;-85
2023/04/30 13:15:13;;;;;;;0.95;0.90;;;;;;;;;;4176380;28;20263;-85
2023/04/30 13:17:33;;;;;;;1.00;1.00;;;;;;;;;;4164128;28;20064;-85
2023/04/30 13:19:53;;;;;;;0.90;0.90;;;;;;;;;;4169208;28;20086;-85
2023/04/30 13:22:14;;;;;;;1.00;1.00;;;;;;;;;;4160543;28;20117;-85
2023/04/30 13:24:34;;;;;;;0.98;0.98;;;;;;;;;;4163055;28;20045;-85
2023/04/30 13:26:56;;;;;;;1.23;1.23;;;;;;;;;;4157935;28;20064;-85
2023/04/30 13:29:19;;;;;;;0.90;0.90;;;;;;;;;;4180080;28;20052;-85
2023/04/30 13:31:41;;;;;;;1.75;1.10;;;;;;;;;;4173347;28;20248;-85
2023/04/30 13:34:01;;;;;;;0.90;0.90;;;;;;;;;;4158729;28;20060;-85
2023/04/30 13:36:21;;;;;;;0.80;0.80;;;;;;;;;;4177645;28;20092;-85
2023/04/30 13:38:42;;;;;;;0.90;0.90;;;;;;;;;;4186499;28;20252;-85
2023/04/30 13:41:02;;;;;;;1.15;0.88;;;;;;;;;;4172692;28;20102;-85
2023/04/30 13:43:22;;;;;;;0.80;0.80;;;;;;;;;;4174135;28;20057;-85
2023/04/30 13:45:42;;;;;;;0.90;0.90;;;;;;;;;;4169465;28;20300;-85
2023/04/30 13:48:02;;;;;;;0.80;0.80;;;;;;;;;;4161977;28;20048;-85
2023/04/30 13:50:23;;;;;;;0.80;0.80;;;;;;;;;;4161650;28;20084;-85
2023/04/30 13:52:43;;;;;;;1.00;0.90;;;;;;;;;;4163760;28;20152;-85
2023/04/30 13:55:04;;;;;;;0.85;0.85;;;;;;;;;;4181257;28;20124;-85
2023/04/30 13:57:24;;;;;;;0.90;0.90;;;;;;;;;;4162494;28;20172;-85
2023/04/30 13:59:44;;;;;;;0.90;0.90;;;;;;;;;;4176536;28;20264;-85
2023/04/30 14:02:06;;;;;;;0.90;0.90;;;;;;;;;;4180077;28;20052;-85
2023/04/30 14:04:26;;;;;;;1.05;0.93;;;;;;;;;;4175556;28;20447;-84
2023/04/30 14:06:47;;;;;;;0.90;0.90;;;;;;;;;;4174371;28;20053;-84
2023/04/30 14:09:07;;;;;;;0.90;0.90;;;;;;;;;;4164751;28;20152;-85